createdAt,value
2019-05-25T00:01:45.947Z,14.02
2019-05-25T00:04:14.656Z,14.00
2019-05-25T00:06:43.321Z,13.97
2019-05-25T00:09:12.093Z,13.99
2019-05-25T00:11:40.763Z,13.97
2019-05-25T00:14:09.518Z,13.93
2019-05-25T00:16:38.182Z,13.91
2019-05-25T00:19:06.889Z,13.82
2019-05-25T00:21:35.598Z,13.89
2019-05-25T00:24:12.395Z,13.87
2019-05-25T00:26:34.852Z,13.87
2019-05-25T00:29:03.544Z,13.83
2019-05-25T00:31:37.558Z,13.85
2019-05-25T00:34:06.321Z,13.88
2019-05-25T00:36:35.456Z,13.86
2019-05-25T00:39:05.522Z,13.89
2019-05-25T00:41:34.258Z,13.89
2019-05-25T00:44:03.126Z,13.92
2019-05-25T00:46:31.798Z,13.91
2019-05-25T00:49:01.085Z,13.88
2019-05-25T00:51:29.769Z,13.87
2019-05-25T00:53:58.531Z,13.85
2019-05-25T00:56:27.214Z,13.88
2019-05-25T00:58:55.972Z,13.86
2019-05-25T01:01:24.713Z,13.86
2019-05-25T01:03:53.483Z,13.80
2019-05-25T01:06:22.208Z,13.69
2019-05-25T01:08:50.921Z,13.76
2019-05-25T01:11:19.651Z,13.71
2019-05-25T01:13:48.331Z,13.66
2019-05-25T01:16:17.019Z,13.64
2019-05-25T01:18:45.694Z,13.64
2019-05-25T01:21:14.388Z,13.68
2019-05-25T01:23:43.050Z,13.59
2019-05-25T01:26:11.800Z,13.61
2019-05-25T01:28:40.531Z,13.62
2019-05-25T01:31:09.241Z,13.57
2019-05-25T01:33:37.914Z,13.55
2019-05-25T01:36:06.627Z,13.58
2019-05-25T01:38:35.374Z,13.55
2019-05-25T01:41:04.321Z,13.51
2019-05-25T01:43:33.007Z,13.55
2019-05-25T01:46:01.702Z,13.50
2019-05-25T01:48:30.492Z,13.47
2019-05-25T01:50:59.189Z,13.47
2019-05-25T01:53:27.871Z,13.45
2019-05-25T01:55:56.635Z,13.43
2019-05-25T01:58:25.295Z,13.48
2019-05-25T02:00:54.084Z,13.43
2019-05-25T02:03:22.819Z,13.37
2019-05-25T02:05:51.526Z,13.37
2019-05-25T02:08:20.186Z,13.20
2019-05-25T02:10:48.872Z,13.32
2019-05-25T02:13:17.593Z,13.29
2019-05-25T02:15:46.773Z,13.23
2019-05-25T02:18:15.443Z,13.31
2019-05-25T02:20:44.125Z,13.33
2019-05-25T02:23:12.915Z,13.27
2019-05-25T02:25:41.607Z,13.33
2019-05-25T02:28:10.282Z,13.33
2019-05-25T02:30:39.005Z,13.36
2019-05-25T02:33:07.727Z,13.33
2019-05-25T02:35:36.429Z,13.31
2019-05-25T02:38:05.090Z,13.34
2019-05-25T02:40:33.875Z,13.41
2019-05-25T02:43:02.539Z,13.37
2019-05-25T02:45:31.229Z,13.38
2019-05-25T02:47:59.898Z,13.37
2019-05-25T02:50:28.669Z,13.36
2019-05-25T02:52:57.349Z,13.34
2019-05-25T02:55:34.417Z,13.34
2019-05-25T02:57:56.561Z,13.32
2019-05-25T03:00:34.932Z,13.34
2019-05-25T03:03:07.596Z,13.31
2019-05-25T03:05:41.658Z,13.21
2019-05-25T03:08:10.404Z,13.23
2019-05-25T03:10:40.001Z,13.28
2019-05-25T03:13:08.667Z,13.27
2019-05-25T03:15:37.562Z,13.26
2019-05-25T03:18:06.226Z,13.29
2019-05-25T03:20:34.925Z,13.25
2019-05-25T03:23:04.047Z,13.26
2019-05-25T03:25:48.301Z,13.28
2019-05-25T03:28:03.148Z,13.21
2019-05-25T03:30:34.443Z,13.24
2019-05-25T03:33:03.190Z,13.24
2019-05-25T03:35:31.960Z,13.14
2019-05-25T03:38:00.664Z,13.19
2019-05-25T03:40:29.377Z,13.19
2019-05-25T03:42:58.048Z,13.23
2019-05-25T03:45:26.794Z,13.27
2019-05-25T03:47:55.577Z,13.31
2019-05-25T03:50:24.244Z,13.30
2019-05-25T03:52:52.946Z,13.31
2019-05-25T03:55:21.823Z,13.30
2019-05-25T03:57:50.597Z,13.30
2019-05-25T04:00:25.253Z,13.33
2019-05-25T04:02:53.987Z,13.33
2019-05-25T04:05:24.359Z,13.31
2019-05-25T04:07:53.176Z,13.36
2019-05-25T04:10:21.942Z,13.32
2019-05-25T04:12:50.643Z,13.25
2019-05-25T04:15:19.446Z,13.30
2019-05-25T04:17:48.161Z,13.32
2019-05-25T04:20:17.031Z,13.35
2019-05-25T04:22:45.801Z,13.37
2019-05-25T04:25:14.673Z,13.36
2019-05-25T04:27:43.455Z,13.34
2019-05-25T04:30:12.622Z,13.38
2019-05-25T04:32:41.386Z,13.37
2019-05-25T04:35:10.166Z,13.41
2019-05-25T04:37:38.930Z,13.42
2019-05-25T04:40:08.546Z,13.45
2019-05-25T04:42:37.328Z,13.41
2019-05-25T04:45:08.114Z,13.43
2019-05-25T04:47:36.941Z,13.49
2019-05-25T04:50:10.123Z,13.41
2019-05-25T04:52:41.328Z,13.48
2019-05-25T04:55:09.585Z,13.44
2019-05-25T04:57:38.302Z,13.44
2019-05-25T05:00:07.770Z,13.41
2019-05-25T05:02:36.500Z,13.39
2019-05-25T05:05:07.178Z,13.40
2019-05-25T05:07:35.865Z,13.43
2019-05-25T05:10:08.851Z,13.42
2019-05-25T05:12:37.653Z,13.40
2019-05-25T05:15:06.822Z,13.36
2019-05-25T05:17:35.613Z,13.27
2019-05-25T05:20:08.660Z,13.35
2019-05-25T05:22:37.457Z,13.29
2019-05-25T05:25:07.137Z,13.50
2019-05-25T05:27:36.025Z,13.44
2019-05-25T05:30:06.817Z,13.46
2019-05-25T05:32:35.575Z,13.51
2019-05-25T05:35:08.707Z,13.53
2019-05-25T05:37:37.670Z,13.60
2019-05-25T05:40:08.510Z,13.69
2019-05-25T05:42:39.653Z,13.65
2019-05-25T05:45:08.855Z,13.73
2019-05-25T05:47:37.656Z,13.79
2019-05-25T05:50:08.217Z,13.72
2019-05-25T05:52:38.871Z,13.76
2019-05-25T05:55:10.393Z,13.83
2019-05-25T05:57:39.093Z,13.85
2019-05-25T06:00:10.571Z,13.92
2019-05-25T06:02:39.315Z,13.95
2019-05-25T06:05:08.197Z,14.00
2019-05-25T06:07:36.964Z,14.12
2019-05-25T06:10:07.935Z,14.26
2019-05-25T06:12:36.627Z,14.34
2019-05-25T06:15:07.917Z,14.35
2019-05-25T06:17:36.589Z,14.39
2019-05-25T06:20:07.270Z,14.46
2019-05-25T06:22:36.108Z,14.54
2019-05-25T06:25:06.910Z,14.66
2019-05-25T06:27:35.579Z,14.60
2019-05-25T06:30:06.409Z,14.65
2019-05-25T06:32:35.109Z,14.79
2019-05-25T06:35:05.756Z,14.77
2019-05-25T06:37:34.465Z,14.96
2019-05-25T06:40:04.869Z,14.99
2019-05-25T06:42:33.557Z,14.98
2019-05-25T06:45:02.370Z,14.87
2019-05-25T06:47:31.117Z,14.80
2019-05-25T06:49:59.823Z,14.87
2019-05-25T06:52:28.524Z,14.80
2019-05-25T06:54:57.215Z,14.78
2019-05-25T06:57:25.874Z,14.74
2019-05-25T06:59:54.654Z,14.66
2019-05-25T07:02:23.451Z,14.69
2019-05-25T07:04:52.174Z,14.65
2019-05-25T07:07:20.934Z,14.50
2019-05-25T07:09:49.703Z,14.54
2019-05-25T07:12:18.386Z,14.70
2019-05-25T07:14:47.175Z,14.86
2019-05-25T07:17:16.167Z,14.76
2019-05-25T07:19:44.945Z,14.66
2019-05-25T07:22:13.665Z,14.70
2019-05-25T07:24:42.510Z,14.79
2019-05-25T07:27:11.468Z,14.73
2019-05-25T07:29:40.173Z,14.68
2019-05-25T07:32:08.911Z,14.78
2019-05-25T07:34:37.641Z,14.78
2019-05-25T07:37:06.327Z,14.80
2019-05-25T07:39:35.094Z,14.94
2019-05-25T07:42:03.791Z,14.95
2019-05-25T07:44:32.860Z,15.03
2019-05-25T07:47:01.670Z,15.06
2019-05-25T07:49:30.458Z,15.12
2019-05-25T07:52:02.488Z,15.03
2019-05-25T07:54:32.132Z,14.98
2019-05-25T07:57:22.237Z,14.97
2019-05-25T07:59:51.055Z,14.95
2019-05-25T08:02:19.709Z,14.86
2019-05-25T08:04:48.410Z,14.82
2019-05-25T08:07:17.071Z,14.87
2019-05-25T08:09:45.854Z,14.91
2019-05-25T08:12:14.514Z,14.93
2019-05-25T08:14:45.154Z,14.92
2019-05-25T08:17:14.950Z,14.96
2019-05-25T08:19:43.717Z,14.94
2019-05-25T08:22:12.459Z,15.06
2019-05-25T08:24:41.125Z,15.14
2019-05-25T08:27:09.826Z,15.33
2019-05-25T08:29:38.556Z,15.43
2019-05-25T08:32:07.267Z,15.38
2019-05-25T08:34:36.060Z,15.58
2019-05-25T08:37:04.791Z,15.68
2019-05-25T08:39:33.576Z,15.85
2019-05-25T08:42:02.345Z,16.03
2019-05-25T08:44:31.029Z,15.89
2019-05-25T08:46:59.719Z,15.90
2019-05-25T08:49:28.429Z,15.95
2019-05-25T08:51:57.156Z,15.94
2019-05-25T08:54:25.944Z,15.95
2019-05-25T08:56:54.671Z,16.15
2019-05-25T08:59:23.443Z,16.33
2019-05-25T09:01:52.209Z,16.30
2019-05-25T09:04:21.593Z,16.41
2019-05-25T09:06:50.405Z,16.52
2019-05-25T09:09:19.145Z,16.61
2019-05-25T09:11:47.852Z,16.68
2019-05-25T09:14:16.627Z,16.73
2019-05-25T09:16:45.294Z,16.51
2019-05-25T09:19:14.123Z,16.43
2019-05-25T09:21:42.892Z,16.65
2019-05-25T09:24:11.628Z,16.57
2019-05-25T09:26:40.359Z,16.41
2019-05-25T09:29:09.542Z,16.38
2019-05-25T09:31:38.285Z,16.56
2019-05-25T09:34:06.957Z,16.59
2019-05-25T09:36:35.621Z,16.66
2019-05-25T09:39:05.937Z,16.66
2019-05-25T09:41:34.615Z,16.87
2019-05-25T09:44:03.387Z,16.94
2019-05-25T09:46:32.129Z,17.30
2019-05-25T09:49:00.817Z,17.28
2019-05-25T09:51:29.565Z,17.00
2019-05-25T09:53:58.311Z,17.19
2019-05-25T09:56:27.043Z,17.41
2019-05-25T09:58:55.827Z,17.36
2019-05-25T10:01:24.580Z,17.33
2019-05-25T10:03:56.492Z,17.39
2019-05-25T10:06:23.813Z,17.57
2019-05-25T10:08:52.654Z,17.57
2019-05-25T10:11:21.290Z,17.67
2019-05-25T10:13:50.052Z,17.97
2019-05-25T10:16:18.884Z,18.54
2019-05-25T10:18:47.615Z,18.83
2019-05-25T10:21:16.398Z,19.11
2019-05-25T10:23:45.051Z,19.30
2019-05-25T10:26:13.777Z,19.27
2019-05-25T10:28:43.189Z,18.97
2019-05-25T10:31:11.944Z,18.94
2019-05-25T10:33:40.734Z,18.68
2019-05-25T10:36:09.412Z,18.76
2019-05-25T10:38:38.206Z,18.69
2019-05-25T10:41:06.974Z,18.35
2019-05-25T10:43:37.282Z,18.58
2019-05-25T10:46:06.043Z,18.67
2019-05-25T10:48:34.774Z,18.51
2019-05-25T10:51:03.502Z,18.42
2019-05-25T10:53:32.198Z,18.82
2019-05-25T10:56:00.913Z,19.00
2019-05-25T10:58:30.184Z,19.07
2019-05-25T11:00:58.918Z,19.03
2019-05-25T11:03:27.635Z,19.00
2019-05-25T11:05:56.379Z,18.92
2019-05-25T11:08:25.104Z,18.86
2019-05-25T11:10:53.817Z,18.79
2019-05-25T11:13:22.476Z,18.59
2019-05-25T11:15:51.259Z,18.21
2019-05-25T11:18:20.070Z,17.87
2019-05-25T11:20:48.736Z,17.87
2019-05-25T11:23:17.619Z,17.84
2019-05-25T11:25:46.481Z,17.90
2019-05-25T11:28:15.274Z,17.90
2019-05-25T11:30:43.930Z,18.59
2019-05-25T11:33:12.700Z,18.94
2019-05-25T11:35:41.372Z,19.16
2019-05-25T11:38:10.223Z,19.51
2019-05-25T11:40:38.961Z,20.05
2019-05-25T11:43:07.688Z,20.90
2019-05-25T11:45:36.386Z,21.44
2019-05-25T11:48:06.314Z,22.12
2019-05-25T11:50:35.100Z,21.80
2019-05-25T11:53:05.867Z,21.55
2019-05-25T11:55:34.355Z,21.21
2019-05-25T11:58:03.151Z,21.07
2019-05-25T12:00:32.001Z,20.71
2019-05-25T12:03:00.782Z,20.62
2019-05-25T12:05:29.448Z,20.46
2019-05-25T12:07:58.137Z,20.77
2019-05-25T12:10:28.251Z,20.88
2019-05-25T12:12:56.988Z,20.96
2019-05-25T12:15:25.650Z,20.90
2019-05-25T12:17:54.363Z,20.93
2019-05-25T12:20:23.132Z,21.27
2019-05-25T12:22:51.920Z,21.61
2019-05-25T12:25:20.766Z,22.00
2019-05-25T12:27:49.899Z,21.95
2019-05-25T12:30:20.068Z,21.68
2019-05-25T12:32:48.812Z,21.29
2019-05-25T12:35:19.258Z,21.27
2019-05-25T12:37:47.999Z,20.63
2019-05-25T12:40:16.965Z,20.37
2019-05-25T12:42:46.060Z,20.05
2019-05-25T12:45:16.031Z,20.15
2019-05-25T12:47:44.811Z,20.27
2019-05-25T12:50:14.201Z,20.11
2019-05-25T12:52:42.866Z,20.01
2019-05-25T12:55:11.995Z,19.78
2019-05-25T12:57:40.744Z,19.77
2019-05-25T13:00:15.864Z,19.47
2019-05-25T13:02:40.333Z,19.48
2019-05-25T13:05:09.255Z,19.32
2019-05-25T13:07:38.006Z,19.12
2019-05-25T13:10:08.202Z,18.93
2019-05-25T13:12:36.937Z,18.96
2019-05-25T13:15:08.969Z,18.82
2019-05-25T13:17:37.684Z,18.68
2019-05-25T13:20:07.076Z,18.61
2019-05-25T13:22:35.807Z,18.53
2019-05-25T13:25:08.081Z,18.43
2019-05-25T13:27:36.850Z,18.33
2019-05-25T13:30:10.441Z,18.35
2019-05-25T13:32:39.117Z,18.76
2019-05-25T13:35:09.009Z,18.86
2019-05-25T13:37:37.805Z,18.98
2019-05-25T13:40:07.382Z,18.91
2019-05-25T13:42:36.064Z,18.85
2019-05-25T13:45:09.619Z,18.65
2019-05-25T13:47:38.300Z,18.46
2019-05-25T13:50:10.964Z,18.34
2019-05-25T13:52:39.658Z,18.23
2019-05-25T13:55:08.641Z,18.29
2019-05-25T13:57:37.350Z,18.22
2019-05-25T14:00:08.171Z,18.34
2019-05-25T14:02:36.895Z,18.11
2019-05-25T14:05:07.385Z,18.22
2019-05-25T14:07:36.193Z,18.18
2019-05-25T14:10:07.595Z,18.19
2019-05-25T14:12:36.305Z,18.05
2019-05-25T14:15:06.850Z,17.90
2019-05-25T14:17:35.621Z,17.94
2019-05-25T14:20:06.521Z,17.88
2019-05-25T14:22:35.350Z,17.86
2019-05-25T14:25:05.748Z,17.89
2019-05-25T14:27:34.492Z,17.78
2019-05-25T14:30:03.752Z,17.97
2019-05-25T14:32:32.427Z,17.97
2019-05-25T14:35:01.221Z,18.01
2019-05-25T14:37:29.911Z,18.08
2019-05-25T14:39:58.663Z,18.16
2019-05-25T14:42:27.415Z,18.25
2019-05-25T14:44:56.081Z,18.46
2019-05-25T14:47:25.100Z,18.75
2019-05-25T14:49:53.907Z,18.73
2019-05-25T14:52:22.658Z,18.73
2019-05-25T14:54:51.439Z,18.18
2019-05-25T14:57:20.198Z,17.92
2019-05-25T14:59:48.892Z,17.89
2019-05-25T15:02:17.681Z,17.79
2019-05-25T15:04:46.534Z,17.48
2019-05-25T15:07:15.299Z,17.48
2019-05-25T15:09:43.990Z,17.34
2019-05-25T15:12:12.737Z,17.34
2019-05-25T15:14:41.408Z,17.34
2019-05-25T15:17:10.181Z,17.33
2019-05-25T15:19:38.914Z,17.33
2019-05-25T15:22:07.890Z,17.18
2019-05-25T15:24:36.603Z,17.23
2019-05-25T15:27:05.381Z,17.03
2019-05-25T15:29:34.079Z,17.03
2019-05-25T15:32:18.828Z,16.97
2019-05-25T15:34:33.152Z,17.00
2019-05-25T15:37:01.833Z,16.93
2019-05-25T15:39:30.617Z,16.82
2019-05-25T15:41:59.379Z,16.88
2019-05-25T15:44:29.916Z,16.72
2019-05-25T15:46:58.577Z,16.71
2019-05-25T15:49:33.172Z,16.66
2019-05-25T15:51:57.735Z,16.72
2019-05-25T15:54:26.456Z,16.68
2019-05-25T15:56:55.216Z,16.57
2019-05-25T15:59:23.996Z,16.49
2019-05-25T16:01:52.686Z,16.49
2019-05-25T16:04:21.372Z,16.39
2019-05-25T16:06:50.441Z,16.27
2019-05-25T16:09:19.160Z,16.24
2019-05-25T16:11:47.882Z,16.15
2019-05-25T16:14:16.576Z,16.13
2019-05-25T16:16:45.267Z,16.06
2019-05-25T16:19:13.989Z,16.10
2019-05-25T16:21:42.760Z,16.11
2019-05-25T16:24:11.433Z,16.19
2019-05-25T16:26:46.179Z,16.09
2019-05-25T16:29:10.624Z,16.06
2019-05-25T16:31:39.463Z,16.20
2019-05-25T16:34:08.217Z,16.23
2019-05-25T16:36:36.953Z,16.18
2019-05-25T16:39:08.180Z,16.15
2019-05-25T16:41:36.888Z,16.23
2019-05-25T16:44:05.695Z,16.17
2019-05-25T16:46:34.412Z,16.03
2019-05-25T16:49:03.197Z,15.99
2019-05-25T16:51:31.896Z,15.97
2019-05-25T16:54:00.591Z,15.94
2019-05-25T16:56:29.343Z,15.85
2019-05-25T16:58:58.116Z,15.85
2019-05-25T17:01:26.786Z,15.65
2019-05-25T17:03:55.566Z,15.69
2019-05-25T17:06:24.269Z,15.56
2019-05-25T17:08:56.235Z,15.65
2019-05-25T17:11:23.430Z,15.79
2019-05-25T17:13:52.126Z,15.72
2019-05-25T17:16:20.792Z,15.74
2019-05-25T17:18:49.604Z,15.81
2019-05-25T17:21:18.341Z,15.78
2019-05-25T17:23:47.032Z,15.60
2019-05-25T17:26:15.772Z,15.53
2019-05-25T17:28:44.556Z,15.58
2019-05-25T17:31:13.253Z,15.55
2019-05-25T17:33:45.835Z,15.59
2019-05-25T17:36:13.248Z,15.60
2019-05-25T17:38:42.051Z,15.59
2019-05-25T17:41:10.826Z,15.57
2019-05-25T17:43:40.423Z,15.58
2019-05-25T17:46:09.159Z,15.45
2019-05-25T17:48:37.839Z,15.40
2019-05-25T17:51:06.597Z,15.46
2019-05-25T17:53:35.307Z,15.43
2019-05-25T17:56:04.160Z,15.37
2019-05-25T17:58:32.881Z,15.27
2019-05-25T18:01:01.638Z,15.37
2019-05-25T18:03:35.175Z,15.42
2019-05-25T18:06:04.233Z,15.35
2019-05-25T18:08:32.963Z,15.34
2019-05-25T18:11:01.752Z,15.33
2019-05-25T18:13:30.505Z,15.20
2019-05-25T18:15:59.165Z,15.18
2019-05-25T18:18:27.872Z,15.15
2019-05-25T18:20:56.611Z,15.16
2019-05-25T18:23:25.304Z,15.12
2019-05-25T18:25:54.059Z,14.99
2019-05-25T18:28:22.746Z,14.96
2019-05-25T18:30:51.504Z,14.90
2019-05-25T18:33:20.215Z,14.79
2019-05-25T18:35:48.856Z,14.77
2019-05-25T18:38:17.654Z,14.75
2019-05-25T18:40:46.380Z,14.72
2019-05-25T18:43:15.050Z,14.66
2019-05-25T18:45:43.758Z,14.55
2019-05-25T18:48:12.506Z,14.50
2019-05-25T18:50:41.196Z,14.46
2019-05-25T18:53:09.984Z,14.51
2019-05-25T18:55:38.718Z,14.51
2019-05-25T18:58:07.475Z,14.47
2019-05-25T19:00:36.272Z,14.46
2019-05-25T19:03:05.123Z,14.34
2019-05-25T19:05:33.796Z,14.35
2019-05-25T19:08:02.616Z,14.37
2019-05-25T19:10:31.376Z,14.28
2019-05-25T19:13:00.081Z,14.19
2019-05-25T19:15:28.740Z,14.15
2019-05-25T19:17:57.446Z,14.13
2019-05-25T19:20:26.148Z,14.09
2019-05-25T19:22:55.101Z,14.05
2019-05-25T19:25:23.847Z,14.02
2019-05-25T19:27:52.570Z,13.89
2019-05-25T19:30:21.551Z,13.94
2019-05-25T19:32:50.286Z,13.80
2019-05-25T19:35:19.428Z,13.80
2019-05-25T19:37:48.103Z,13.73
2019-05-25T19:40:21.968Z,13.69
2019-05-25T19:42:50.789Z,13.64
2019-05-25T19:45:19.969Z,13.62
2019-05-25T19:47:48.717Z,13.52
2019-05-25T19:50:17.734Z,13.53
2019-05-25T19:52:46.428Z,13.49
2019-05-25T19:55:15.338Z,13.44
2019-05-25T19:57:45.343Z,13.37
2019-05-25T20:00:16.088Z,13.39
2019-05-25T20:02:44.750Z,13.33
2019-05-25T20:05:16.735Z,13.31
2019-05-25T20:07:44.309Z,13.33
2019-05-25T20:10:13.550Z,13.30
2019-05-25T20:12:42.167Z,13.23
2019-05-25T20:15:11.878Z,13.22
2019-05-25T20:17:40.544Z,13.13
2019-05-25T20:20:09.999Z,13.14
2019-05-25T20:22:38.759Z,13.13
2019-05-25T20:25:08.271Z,13.07
2019-05-25T20:27:36.946Z,13.07
2019-05-25T20:30:09.270Z,12.96
2019-05-25T20:32:37.933Z,13.03
2019-05-25T20:35:08.617Z,12.99
2019-05-25T20:37:37.299Z,13.01
2019-05-25T20:40:10.083Z,13.05
2019-05-25T20:42:39.129Z,13.06
2019-05-25T20:45:08.808Z,13.03
2019-05-25T20:47:37.944Z,13.05
2019-05-25T20:50:08.169Z,13.05
2019-05-25T20:52:36.982Z,13.08
2019-05-25T20:55:08.075Z,12.97
2019-05-25T20:57:36.776Z,12.98
2019-05-25T21:00:09.553Z,12.94
2019-05-25T21:02:45.254Z,12.96
2019-05-25T21:05:14.913Z,13.00
2019-05-25T21:07:44.629Z,12.93
2019-05-25T21:10:14.975Z,12.92
2019-05-25T21:12:44.823Z,12.86
2019-05-25T21:15:13.758Z,12.91
2019-05-25T21:17:42.406Z,12.85
2019-05-25T21:20:11.329Z,12.83
2019-05-25T21:22:40.022Z,12.79
2019-05-25T21:25:09.004Z,12.74
2019-05-25T21:27:37.793Z,12.70
2019-05-25T21:30:07.941Z,12.58
2019-05-25T21:32:36.606Z,12.49
2019-05-25T21:35:06.458Z,12.42
2019-05-25T21:37:35.205Z,12.36
2019-05-25T21:40:07.064Z,12.29
2019-05-25T21:42:35.826Z,12.22
2019-05-25T21:45:06.286Z,12.07
2019-05-25T21:47:35.020Z,12.04
2019-05-25T21:50:04.549Z,12.02
2019-05-25T21:52:33.317Z,11.98
2019-05-25T21:55:02.127Z,11.92
2019-05-25T21:57:31.090Z,11.89
2019-05-25T21:59:59.761Z,11.85
2019-05-25T22:02:28.450Z,11.80
2019-05-25T22:04:57.246Z,11.74
2019-05-25T22:07:25.908Z,11.68
2019-05-25T22:09:54.585Z,11.61
2019-05-25T22:12:23.268Z,11.54
2019-05-25T22:14:51.984Z,11.44
2019-05-25T22:17:20.654Z,11.37
2019-05-25T22:19:49.326Z,11.32
2019-05-25T22:22:18.103Z,11.23
2019-05-25T22:24:46.783Z,11.16
2019-05-25T22:27:15.453Z,11.09
2019-05-25T22:29:44.210Z,11.03
2019-05-25T22:32:12.913Z,10.97
2019-05-25T22:34:41.641Z,10.91
2019-05-25T22:37:10.315Z,10.85
2019-05-25T22:39:39.021Z,10.79
2019-05-25T22:42:07.686Z,10.71
2019-05-25T22:44:36.423Z,10.65
2019-05-25T22:47:05.097Z,10.58
2019-05-25T22:49:33.800Z,10.54
2019-05-25T22:52:02.625Z,10.50
2019-05-25T22:54:31.290Z,10.48
2019-05-25T22:57:00.002Z,10.43
2019-05-25T22:59:28.664Z,10.36
2019-05-25T23:01:57.395Z,10.31
2019-05-25T23:04:26.090Z,10.25
2019-05-25T23:06:58.267Z,10.23
2019-05-25T23:09:25.801Z,10.17
2019-05-25T23:11:54.564Z,10.11
2019-05-25T23:14:23.234Z,10.09
2019-05-25T23:16:51.997Z,10.06
2019-05-25T23:19:20.680Z,10.04
2019-05-25T23:21:49.434Z,10.01
2019-05-25T23:24:18.178Z,9.97
2019-05-25T23:26:46.874Z,9.97
2019-05-25T23:29:15.614Z,9.95
2019-05-25T23:31:44.346Z,9.94
2019-05-25T23:34:13.072Z,9.91
2019-05-25T23:36:41.826Z,9.88
2019-05-25T23:39:10.482Z,9.87
2019-05-25T23:41:39.270Z,9.89
2019-05-25T23:44:07.954Z,9.87
2019-05-25T23:46:36.727Z,9.86
2019-05-25T23:49:05.430Z,9.86
2019-05-25T23:51:34.124Z,9.85
2019-05-25T23:54:02.856Z,9.84
2019-05-25T23:56:31.802Z,9.81
2019-05-25T23:59:00.955Z,9.78
